Airfield :
LOGIN :

Register | Disclaimer

   EN    FR    IT 

 










Legend :    VFR   Marginal VFR   IFR   Intensive IFR   Very Intensive IFR
Visi :
Ceiling :
>= 8 km
>= 3000ft
5 to 8 km
1000 to 3000 ft
1500m to 5 km
500 to 1000 ft
800 to 1500m
200 to 500 ft
< 800m
< 200 ft
Symbols :   Thunderstorms  Fog  Heavy snow  Heavy precipitations  Wind > 20 kt
SIGMETs :     Misc.  Thunderstorms  Icing  Turbulence  Mountain Waves  Volcanic Ashes







- Airport Elevation : 359 ft
- IATA code : BVA
- Download approach charts


LFOB - Beauvais

CURRENT METAR :
  • 211200Z AUTO 33011KT 300V360 CAVOK 18/09 Q1023 NOSIG

EXPIRED METARs :
  • 211130Z AUTO 35011KT 320V020 9999 FEW039 18/10 Q1023 NOSIG
  • 211100Z AUTO 35010KT 9999 SCT038 17/09 Q1023 NOSIG
  • 211030Z AUTO 34013KT 9999 FEW037 17/09 Q1023 NOSIG
  • 211000Z AUTO 35011KT 320V020 9999 BKN036 17/09 Q1023 NOSIG
  • 210930Z AUTO 35011KT 320V020 9999 FEW036 17/10 Q1023 NOSIG

TAF TAF LFOB
Valid from the 21 at 12:00 until the 22 at 12:00 UTC


211100Z 2112/2212 36012KT CAVOK
BECMG 2121/2124 VRB02KT
BECMG 2208/2210 01012KT
ATIS : +33 3 44 11 49 28
No reported NOTAMs for that airfield.



MET'MAP, your aeronautical weather chart ! - Copyright ORBIFLY December 2007 - Disclaimer

ORBIFLY MET'MAP TEAM :

Programming & Development : Alexandra Zaïnal
Concept & Development : Baudouin d'Aumeries
Co-Development & Prog : Marc-Olivier Méhu
Technical & hardware support : Manuel Goepfert

Contact : metmap@orbifly.com




SOURCES & CREDITS :

   NOAA